AA2244 / N817NN 7700 Squawk Report (16th of November, 2019)

Aircraft B738 Reg No. N817NN Age 10 years old
Model 737 Jet engines 2 First flight 17-11-09
Registered 03-12-09 Rollout 06-11-09 Delivered 03-12-09
Construction No. 29558 Line No. 3107 Series 823
ADSHEX AB2496 Airline name American Airlines Owner N/A
Airfield based Dallas-Fort Worth~TX~N First tracked 2017-07-13 11:27:00

Flight history for N817NN

Route Flight No Date Playback
La Guardia (LGA) - Chicago Ohare Intl (ORD) AA2461 2019-12-12 06:00:00
Miami Intl (MIA) - La Guardia (LGA) AA2768 2019-12-12 03:01:00
Miami Intl (MIA) - Tampa Intl (TPA) - Miami Intl (MIA) AA2807 2019-12-11 21:28:00
Logan International Airport (BOS) - Miami Intl (MIA) AA2623 2019-12-11 19:00:00
Miami Intl (MIA) - Logan International Airport (BOS) AA1074 2019-12-11 11:47:00
Luis Munoz Marin Intl (SJU) - Miami Intl (MIA) AA1299 2019-12-10 23:50:00
Miami Intl (MIA) - Luis Munoz Marin Intl (SJU) AA1254 2019-12-10 19:24:00
La Guardia (LGA) - Miami Intl (MIA) AA1249 2019-12-10 13:45:00
Miami Intl (MIA) - La Guardia (LGA) AA871 2019-12-10 10:58:00
El Salvador Intl (SAL) - Miami Intl (MIA) AA1494 2019-12-10 00:37:00
Miami Intl (MIA) - El Salvador Intl (SAL) AA1479 2019-12-09 18:28:00
Logan International Airport (BOS) - Miami Intl (MIA) AA2623 2019-12-09 16:33:00
Chicago Ohare Intl (ORD) - Logan International Airport (BOS) AA1172 2019-12-09 11:05:00
Chicago Ohare Intl (ORD) - Logan International Airport (BOS) - Chicago Ohare Intl (ORD) AA841 2019-12-08 22:51:00
John F Kennedy Intl (JFK) - Chicago Ohare Intl (ORD) AA852 2019-12-08 17:03:00
Dallas Fort Worth (DFW) - John F Kennedy Intl (JFK) AA1528 2019-12-08 12:49:00
Reina Beatrix Intl (AUA) - Dallas Fort Worth (DFW) AA1143 2019-12-08 02:59:00
Miami Intl (MIA) - Reina Beatrix Intl (AUA) - Miami Intl (MIA) AA1028 2019-12-07 17:26:00
José Martí Intl (HAV) - Miami Intl (MIA) AA2696 2019-12-07 03:02:00
Miami Intl (MIA) - José Martí Intl (HAV) AA2699 2019-12-07 00:52:00
Time Lat Lon Altitude Heading Speed Vertical Rate
2019-11-16 14:27:49 GMT 40.491165 -80.429077 3,575 66 202 -64
2019-11-16 14:27:46 GMT 40.490437 -80.431160 3,575 66 202 -64
2019-11-16 14:27:33 GMT 40.485214 -80.446716 3,575 68 215 0
2019-11-16 14:27:23 GMT 40.482105 -80.457809 3,600 76 218 128
2019-11-16 14:27:13 GMT 40.480057 -80.470924 3,600 79 217 64
2019-11-16 14:26:55 GMT 40.475739 -80.493347 3,575 72 217 -64
2019-11-16 14:26:50 GMT 40.474472 -80.499763 3,600 78 218 -128
2019-11-16 14:26:43 GMT 40.474136 -80.510315 3,575 95 217 64
2019-11-16 14:26:20 GMT 40.478302 -80.541382 3,575 120 230 0
2019-11-16 14:26:09 GMT 40.484295 -80.552132 3,625 135 240 -640
2019-11-16 14:26:01 GMT 40.491760 -80.558960 3,750 155 254 -960
2019-11-16 14:25:51 GMT 40.504852 -80.563965 3,900 175 272 -896
2019-11-16 14:25:40 GMT 40.517300 -80.564240 4,075 199 309 -896
2019-11-16 14:25:30 GMT 40.545135 -80.556335 4,275 199 309 -896
2019-11-16 14:25:20 GMT 40.545135 -80.556335 4,325 210 324 -832
2019-11-16 14:25:07 GMT 40.562500 -80.539581 4,650 223 347 -2368
2019-11-16 14:24:58 GMT 40.572510 -80.527588 5,100 223 350 -3712
2019-11-16 14:24:52 GMT 40.580425 -80.518112 5,500 222 351 -3648
2019-11-16 14:24:48 GMT 40.583450 -80.514557 5,750 222 352 -3648
2019-11-16 14:24:45 GMT 40.587452 -80.509811 5,850 222 352 -3712
2019-11-16 14:24:38 GMT 40.597595 -80.498657 6,350 214 356 -3648
2019-11-16 14:24:32 GMT 40.606308 -80.491272 6,750 207 358 -3584
2019-11-16 14:24:26 GMT 40.614082 -80.486526 7,250 197 361 -3584
2019-11-16 14:24:17 GMT 40.629868 -80.481262 7,625 187 362 -3584
2019-11-16 14:24:04 GMT 40.662643 -80.484009 8,825 171 375 -3648
2019-11-16 14:23:55 GMT 40.665665 -80.484619 8,925 171 370 -3584
2019-11-16 14:23:45 GMT 40.681721 -80.487778 9,475 171 375 -3648
2019-11-16 14:23:35 GMT 40.699951 -80.491699 10,175 168 382 -3648
2019-11-16 14:23:24 GMT 40.718964 -80.498764 10,850 155 386 -3584
2019-11-16 14:23:19 GMT 40.727295 -80.504066 11,150 151 387 -3584
2019-11-16 14:23:13 GMT 40.734558 -80.510132 11,450 142 390 -3648
2019-11-16 14:23:04 GMT 40.748199 -80.526062 12,050 128 394 -3520
2019-11-16 14:22:53 GMT 40.759140 -80.546143 12,650 116 396 -3584
2019-11-16 14:22:42 GMT 40.766586 -80.569298 13,275 103 398 -3520
2019-11-16 14:22:38 GMT 40.768494 -80.579971 13,675 96 401 -3584
2019-11-16 14:22:33 GMT 40.769943 -80.595276 13,925 90 404 -3584
2019-11-16 14:22:28 GMT 40.769989 -80.607300 14,225 85 405 -3648
2019-11-16 14:22:22 GMT 40.769009 -80.619858 14,525 78 406 -3584
2019-11-16 14:22:15 GMT 40.765934 -80.637215 14,950 68 408 -3584
2019-11-16 14:22:12 GMT 40.763672 -80.645386 15,175 64 409 -3584
2019-11-16 14:22:07 GMT 40.760193 -80.655640 15,450 52 412 -3584
2019-11-16 14:22:01 GMT 40.754856 -80.667488 15,775 52 412 -3584
2019-11-16 14:21:57 GMT 40.748611 -80.678528 16,100 47 413 -3648
2019-11-16 14:21:50 GMT 40.741215 -80.688713 16,450 41 413 -3648
2019-11-16 14:21:45 GMT 40.733139 -80.697632 16,825 28 419 -3584
2019-11-16 14:21:42 GMT 40.725357 -80.704590 17,075 28 419 -3584
2019-11-16 14:21:29 GMT 40.706764 -80.715805 17,700 16 422 -3584
2019-11-16 14:21:22 GMT 40.694183 -80.720276 18,100 6 424 -3456
2019-11-16 14:21:19 GMT 40.686676 -80.721802 18,325 4 424 -3520
2019-11-16 14:21:12 GMT 40.673946 -80.722984 19,050 2 427 -3648
2019-11-16 14:21:08 GMT 40.667267 -80.723389 18,925 2 426 -3648
2019-11-16 14:21:03 GMT 40.655838 -80.724167 19,275 3 428 -3648
2019-11-16 14:20:59 GMT 40.646118 -80.724854 19,575 3 429 -3648
2019-11-16 14:20:50 GMT 40.628998 -80.726074 20,100 3 433 -3584
2019-11-16 14:20:47 GMT 40.624603 -80.726418 20,225 3 433 -3584
2019-11-16 14:20:43 GMT 40.613983 -80.727234 20,525 3 437 -3584
2019-11-16 14:20:37 GMT 40.605515 -80.727852 20,800 3 437 -3584
2019-11-16 14:20:31 GMT 40.592331 -80.728821 21,325 3 440 -3648
2019-11-16 14:20:27 GMT 40.583775 -80.729538 21,425 3 441 -3712
2019-11-16 14:20:22 GMT 40.572742 -80.730408 21,775 3 443 -3776
2019-11-16 14:20:16 GMT 40.562733 -80.731224 22,000 3 444 -3776
2019-11-16 14:20:10 GMT 40.548721 -80.732468 22,525 6 446 -3776
2019-11-16 14:20:07 GMT 40.541740 -80.733467 22,750 8 447 -3840
2019-11-16 14:19:56 GMT 40.519867 -80.739929 23,400 21 455 -3712
2019-11-16 14:19:46 GMT 40.500122 -80.751694 24,050 32 463 -3776
2019-11-16 14:19:38 GMT 40.487923 -80.762367 24,650 41 469 -3904
2019-11-16 14:19:35 GMT 40.481361 -80.769424 24,725 44 471 -4032
2019-11-16 14:19:25 GMT 40.466400 -80.790466 25,350 54 478 -3584
2019-11-16 14:19:15 GMT 40.453903 -80.816589 26,000 65 483 -3648
2019-11-16 14:19:04 GMT 40.445560 -80.844391 26,625 76 485 -3584
2019-11-16 14:18:53 GMT 40.440811 -80.878784 27,300 83 484 -3520
2019-11-16 14:18:46 GMT 40.439117 -80.898254 27,700 83 485 -3648
2019-11-16 14:18:43 GMT 40.438477 -80.905579 27,850 83 486 -3584
2019-11-16 14:18:32 GMT 40.435730 -80.937439 28,500 83 486 -3200
2019-11-16 14:18:25 GMT 40.433304 -80.965820 28,925 83 485 -2880
2019-11-16 14:18:11 GMT 40.430527 -80.997887 29,500 83 483 -2880
2019-11-16 14:18:05 GMT 40.428864 -81.017029 29,925 83 482 -2880
2019-11-16 14:18:02 GMT 40.427994 -81.027222 30,000 83 482 -2880
2019-11-16 14:17:51 GMT 40.425339 -81.057312 30,500 83 480 -2944
2019-11-16 14:17:41 GMT 40.422638 -81.087585 31,000 83 480 -2944
2019-11-16 14:17:34 GMT 40.420761 -81.108337 31,375 83 478 -3008
2019-11-16 14:17:30 GMT 40.419983 -81.116699 31,400 83 478 -3008
2019-11-16 14:17:20 GMT 40.417305 -81.146584 31,975 83 478 -1856
2019-11-16 14:17:09 GMT 40.414536 -81.177002 32,275 83 478 -1856
2019-11-16 14:17:01 GMT 40.411903 -81.207504 32,550 83 477 -960
2019-11-16 14:16:52 GMT 40.410049 -81.229004 32,675 83 476 -960
2019-11-16 14:16:49 GMT 40.409435 -81.236465 32,725 83 476 -960
2019-11-16 14:16:38 GMT 40.406830 -81.267181 32,925 83 476 -960
2019-11-16 14:16:31 GMT 40.405014 -81.288963 33,025 83 475 -960
2019-11-16 14:16:28 GMT 40.403366 -81.308716 33,125 83 475 -960
2019-11-16 14:16:21 GMT 40.401947 -81.325867 33,175 83 475 -960
2019-11-16 14:16:18 GMT 40.401947 -81.325867 33,225 84 475 -960
2019-11-16 14:16:14 GMT 40.401260 -81.334473 33,275 84 475 -960
2019-11-16 14:16:11 GMT 40.400314 -81.347328 33,350 84 475 -960
2019-11-16 14:16:08 GMT 40.399887 -81.353088 33,375 84 475 -960
2019-11-16 14:16:05 GMT 40.399242 -81.363121 33,425 84 475 -960
2019-11-16 14:15:59 GMT 40.398170 -81.378601 33,475 84 475 -960
2019-11-16 14:15:56 GMT 40.397614 -81.386909 33,550 84 476 -960
2019-11-16 14:15:53 GMT 40.397141 -81.393799 33,675 85 476 -960
2019-11-16 14:15:48 GMT 40.396030 -81.410439 33,700 85 476 -960
2019-11-16 14:15:44 GMT 40.395126 -81.424561 33,775 85 476 -896
2019-11-16 14:15:40 GMT 40.394588 -81.433159 33,850 85 476 -896
2019-11-16 14:15:36 GMT 40.393158 -81.455261 33,925 85 475 -896
2019-11-16 14:15:29 GMT 40.392471 -81.465881 33,975 85 475 -896
2019-11-16 14:15:26 GMT 40.392029 -81.473358 34,050 85 474 -896
2019-11-16 14:15:23 GMT 40.391422 -81.482788 34,575 85 473 -896
2019-11-16 14:15:17 GMT 40.390411 -81.498230 34,175 84 472 -896
2019-11-16 14:15:14 GMT 40.389839 -81.506760 34,200 84 472 -960
2019-11-16 14:15:10 GMT 40.388863 -81.520676 34,300 84 469 -1024
2019-11-16 14:15:07 GMT 40.388351 -81.527466 34,375 84 469 -960
2019-11-16 14:15:04 GMT 40.387619 -81.537964 34,400 84 469 -960
2019-11-16 14:15:01 GMT 40.385925 -81.559387 34,575 84 470 -1088
2019-11-16 14:14:56 GMT 40.385925 -81.559387 34,575 84 470 -1024
2019-11-16 14:14:52 GMT 40.384827 -81.573547 34,600 84 471 -1216
2019-11-16 14:14:48 GMT 40.384205 -81.581787 34,625 84 471 -1280
2019-11-16 14:14:45 GMT 40.383545 -81.590332 34,750 84 472 -1472
2019-11-16 14:14:41 GMT 40.382717 -81.601700 34,825 84 472 -1728
2019-11-16 14:14:37 GMT 40.381691 -81.615311 35,050 85 471 -2112
2019-11-16 14:14:34 GMT 40.381348 -81.621033 35,125 85 470 -2176
2019-11-16 14:14:31 GMT 40.380615 -81.632629 35,300 85 470 -2304
2019-11-16 14:14:27 GMT 40.379883 -81.643738 35,375 84 470 -2432
2019-11-16 14:14:23 GMT 40.379196 -81.653625 35,500 83 471 -2432
2019-11-16 14:14:20 GMT 40.378693 -81.659851 35,675 82 471 -2560
2019-11-16 14:14:17 GMT 40.377594 -81.671753 35,775 81 471 -2624
2019-11-16 14:14:14 GMT 40.375408 -81.692337 35,975 82 471 -2624
2019-11-16 14:14:09 GMT 40.375408 -81.692337 36,100 83 471 -2560
2019-11-16 14:14:06 GMT 40.374893 -81.697754 36,175 83 471 -2496
2019-11-16 14:14:03 GMT 40.373978 -81.709045 36,350 84 471 -2368
2019-11-16 14:14:00 GMT 40.372742 -81.726379 36,550 85 472 -2112
2019-11-16 14:13:53 GMT 40.371918 -81.739197 36,725 85 473 -2112
2019-11-16 14:13:49 GMT 40.370567 -81.763191 36,900 85 475 -1984
2019-11-16 14:13:45 GMT 40.370567 -81.763191 37,000 85 476 -1920
2019-11-16 14:13:41 GMT 40.370102 -81.771492 37,075 85 477 -1792
2019-11-16 14:13:37 GMT 40.369446 -81.783020 37,225 86 478 -1984
2019-11-16 14:13:34 GMT 40.368519 -81.803513 37,375 89 481 -2112
2019-11-16 14:13:31 GMT 40.368519 -81.803513 37,450 89 481 -2112
2019-11-16 14:13:27 GMT 40.368423 -81.811943 37,625 93 481 -1792
2019-11-16 14:13:23 GMT 40.368843 -81.824425 37,675 96 482 -1536
2019-11-16 14:13:20 GMT 40.369446 -81.832581 37,725 97 482 -1472
2019-11-16 14:13:16 GMT 40.371002 -81.845459 37,850 102 481 -1280
2019-11-16 14:13:10 GMT 40.373978 -81.861877 37,950 106 481 -1152
2019-11-16 14:13:04 GMT 40.377090 -81.874878 38,050 110 481 -1152
2019-11-16 14:13:01 GMT 40.383183 -81.894524 38,175 115 482 -1024
2019-11-16 14:12:54 GMT 40.387047 -81.904762 38,250 118 482 -1088
2019-11-16 14:12:51 GMT 40.389885 -81.911629 38,350 122 482 -1344
2019-11-16 14:12:48 GMT 40.392883 -81.918091 38,325 121 482 -1344
2019-11-16 14:12:44 GMT 40.397705 -81.927986 38,425 123 483 -832
2019-11-16 14:12:40 GMT 40.403549 -81.939697 38,475 122 484 -704
2019-11-16 14:12:35 GMT 40.409252 -81.951332 38,525 121 486 -640
2019-11-16 14:12:32 GMT 40.417328 -81.968689 38,600 120 489 -576
2019-11-16 14:12:28 GMT 40.417328 -81.968689 38,675 120 489 -640
2019-11-16 14:12:25 GMT 40.420891 -81.976608 38,825 119 487 -832
2019-11-16 14:12:21 GMT 40.425430 -81.986877 38,700 120 488 -704
2019-11-16 14:12:18 GMT 40.429501 -81.996086 38,775 119 487 -896
2019-11-16 14:12:12 GMT 40.434723 -82.008118 38,825 119 485 -960
2019-11-16 14:12:09 GMT 40.439529 -82.019104 38,900 120 484 -960
2019-11-16 14:12:05 GMT 40.449097 -82.039856 38,975 122 481 -640
2019-11-16 14:12:00 GMT 40.449097 -82.039856 39,000 122 480 -384
2019-11-16 14:11:57 GMT 40.453197 -82.048149 39,025 122 479 -256
2019-11-16 14:11:53 GMT 40.458130 -82.058197 39,025 122 479 -64
2019-11-16 14:11:48 GMT 40.464462 -82.071114 39,025 122 478 64
2019-11-16 14:11:44 GMT 40.468552 -82.079346 39,025 122 477 128
2019-11-16 14:11:39 GMT 40.474594 -82.091492 39,000 123 477 64
2019-11-16 14:11:35 GMT 40.478943 -82.100220 38,975 123 477 64
2019-11-16 14:11:32 GMT 40.483200 -82.108704 39,000 123 477 64
2019-11-16 14:11:28 GMT 40.488903 -82.119995 39,000 123 477 64
2019-11-16 14:11:24 GMT 40.492672 -82.127487 38,975 123 477 128
2019-11-16 14:11:21 GMT 40.495697 -82.133545 38,975 123 477 64
2019-11-16 14:11:17 GMT 40.502289 -82.146606 39,000 123 478 -64
2019-11-16 14:11:11 GMT 40.508312 -82.158699 39,000 123 476 0
2019-11-16 14:11:07 GMT 40.514465 -82.171021 39,000 122 475 192
2019-11-16 14:11:04 GMT 40.516846 -82.175842 39,000 122 475 64
2019-11-16 14:11:01 GMT 40.525120 -82.192467 39,000 123 473 -64
2019-11-16 14:10:54 GMT 40.529121 -82.200394 39,000 123 473 -128
2019-11-16 14:10:48 GMT 40.535873 -82.213501 39,025 124 472 -256
2019-11-16 14:10:45 GMT 40.539551 -82.220581 39,025 124 472 -64
2019-11-16 14:10:40 GMT 40.545277 -82.231415 39,025 124 472 128
2019-11-16 14:10:37 GMT 40.550163 -82.240532 39,025 124 472 128
2019-11-16 14:10:33 GMT 40.555664 -82.250854 39,000 124 474 128
2019-11-16 14:10:28 GMT 40.560791 -82.260498 38,975 124 475 64
2019-11-16 14:10:24 GMT 40.565762 -82.269997 38,975 123 477 0
2019-11-16 14:10:21 GMT 40.569214 -82.276672 38,975 123 477 -64
2019-11-16 14:10:16 GMT 40.576050 -82.290222 39,000 123 479 0
2019-11-16 14:10:12 GMT 40.579697 -82.297546 39,000 123 479 0
2019-11-16 14:10:09 GMT 40.584686 -82.307495 39,000 123 479 0
2019-11-16 14:10:06 GMT 40.590061 -82.318184 39,000 123 479 0
2019-11-16 14:10:03 GMT 40.592468 -82.323059 39,000 123 480 0
2019-11-16 14:09:58 GMT 40.603409 -82.345032 39,000 123 480 0
2019-11-16 14:09:53 GMT 40.603409 -82.345032 39,000 123 480 0
2019-11-16 14:09:50 GMT 40.608124 -82.354492 39,000 123 480 0
2019-11-16 14:09:45 GMT 40.614578 -82.367432 39,000 123 480 0
2019-11-16 14:09:42 GMT 40.617142 -82.372559 39,000 123 480 0
2019-11-16 14:09:38 GMT 40.629044 -82.396484 39,000 123 480 0
2019-11-16 14:09:32 GMT 40.633301 -82.405029 39,000 123 480 0
2019-11-16 14:09:29 GMT 40.633301 -82.405029 39,000 123 480 0
2019-11-16 14:09:24 GMT 40.639664 -82.417664 39,000 123 480 0
2019-11-16 14:09:21 GMT 40.646248 -82.430855 39,000 123 481 0
2019-11-16 14:09:18 GMT 40.646248 -82.430855 39,000 123 481 0
2019-11-16 14:09:10 GMT 40.655365 -82.449219 39,000 123 481 0
2019-11-16 14:09:07 GMT 40.660492 -82.459511 39,000 123 482 0
2019-11-16 14:09:03 GMT 40.664730 -82.468063 39,000 123 482 0
2019-11-16 14:08:59 GMT 40.673355 -82.485474 39,000 123 482 0
2019-11-16 14:08:51 GMT 40.680130 -82.499268 39,000 122 482 0
2019-11-16 14:08:45 GMT 40.686722 -82.512512 39,000 122 482 0
2019-11-16 14:08:39 GMT 40.692986 -82.525299 39,000 123 482 0
2019-11-16 14:08:35 GMT 40.705135 -82.549835 39,000 123 482 0
2019-11-16 14:08:30 GMT 40.705135 -82.549835 39,000 123 482 0
2019-11-16 14:08:25 GMT 40.711933 -82.563629 39,000 122 482 0
2019-11-16 14:08:18 GMT 40.718262 -82.576416 39,000 123 482 0
2019-11-16 14:08:14 GMT 40.726131 -82.592346 39,000 123 482 0
2019-11-16 14:08:10 GMT 40.729904 -82.599960 39,000 123 482 0
2019-11-16 14:08:04 GMT 40.735977 -82.612244 39,000 123 482 0
2019-11-16 14:07:59 GMT 40.743301 -82.627014 39,000 123 482 0
2019-11-16 14:07:55 GMT 40.746429 -82.633415 39,000 123 482 0
2019-11-16 14:07:48 GMT 40.756760 -82.654236 39,000 123 482 0
2019-11-16 14:07:43 GMT 40.762115 -82.665062 39,000 123 482 0
2019-11-16 14:07:40 GMT 40.766354 -82.673683 39,000 123 482 0
2019-11-16 14:07:37 GMT 40.772461 -82.685974 39,000 123 482 0
2019-11-16 14:07:34 GMT 40.772461 -82.685974 39,000 123 482 0
2019-11-16 14:07:27 GMT 40.781937 -82.705078 39,000 123 482 0
2019-11-16 14:07:22 GMT 40.787254 -82.715942 39,000 123 482 0
2019-11-16 14:07:17 GMT 40.793213 -82.727989 39,000 122 481 0
2019-11-16 14:07:14 GMT 40.803642 -82.749084 39,000 122 481 0
2019-11-16 14:07:09 GMT 40.803642 -82.749084 39,000 123 482 0
2019-11-16 14:07:06 GMT 40.807411 -82.756699 39,000 122 481 0
2019-11-16 14:07:01 GMT 40.811783 -82.765564 39,000 122 481 0
2019-11-16 14:06:56 GMT 40.818680 -82.779610 39,000 122 481 0
2019-11-16 14:06:52 GMT 40.824509 -82.791382 39,000 123 482 0
2019-11-16 14:06:48 GMT 40.829224 -82.801025 39,000 123 482 0
2019-11-16 14:06:44 GMT 40.832748 -82.808167 39,000 123 482 0
2019-11-16 14:06:40 GMT 40.837624 -82.818001 39,000 123 482 0
2019-11-16 14:06:36 GMT 40.843185 -82.829285 39,000 122 481 0
2019-11-16 14:06:33 GMT 40.847588 -82.838165 39,000 122 481 0
2019-11-16 14:06:30 GMT 40.856186 -82.855652 39,000 122 481 0
2019-11-16 14:06:26 GMT 40.856186 -82.855652 39,000 122 481 0
2019-11-16 14:06:21 GMT 40.861042 -82.865501 39,000 122 481 0
2019-11-16 14:06:17 GMT 40.865616 -82.874878 39,000 122 481 0
2019-11-16 14:06:14 GMT 40.870789 -82.885437 39,000 122 481 0
2019-11-16 14:06:11 GMT 40.873936 -82.891846 39,000 122 481 0
2019-11-16 14:06:08 GMT 40.881897 -82.908134 39,000 122 481 0
2019-11-16 14:06:05 GMT 40.881897 -82.908134 39,000 122 481 0
2019-11-16 14:06:01 GMT 40.886597 -82.917747 39,000 122 481 0
2019-11-16 14:05:57 GMT 40.890472 -82.925598 39,000 122 481 0
2019-11-16 14:05:53 GMT 40.898026 -82.941162 39,000 122 481 0
2019-11-16 14:05:47 GMT 40.902969 -82.951294 39,000 122 481 0
2019-11-16 14:05:44 GMT 40.906570 -82.958702 39,000 122 481 0
2019-11-16 14:05:41 GMT 40.910294 -82.966316 39,000 122 481 0
2019-11-16 14:05:37 GMT 40.915226 -82.976425 39,000 122 481 0
2019-11-16 14:05:32 GMT 40.920731 -82.987793 39,000 122 480 0
2019-11-16 14:05:29 GMT 40.924118 -82.994690 39,000 122 480 0
2019-11-16 14:05:24 GMT 40.931076 -83.008972 39,000 122 480 0
2019-11-16 14:05:19 GMT 40.939388 -83.025993 39,000 122 480 0
2019-11-16 14:05:12 GMT 40.944321 -83.036102 39,000 122 480 0
2019-11-16 14:05:09 GMT 40.947765 -83.043221 39,000 122 480 0
2019-11-16 14:05:06 GMT 40.951630 -83.051086 39,000 122 480 0
2019-11-16 14:05:01 GMT 40.956528 -83.061218 39,000 122 479 0
2019-11-16 14:04:58 GMT 40.962204 -83.072815 39,000 122 479 0
2019-11-16 14:04:55 GMT 40.964108 -83.076744 39,000 122 479 0
2019-11-16 14:04:52 GMT 40.972870 -83.094727 39,000 122 480 0
2019-11-16 14:04:48 GMT 40.972870 -83.094727 39,000 122 480 0
2019-11-16 14:04:45 GMT 40.976212 -83.101646 39,000 122 480 0
2019-11-16 14:04:41 GMT 40.981377 -83.112198 39,000 122 479 0
2019-11-16 14:04:38 GMT 40.988708 -83.127258 39,000 122 479 0
2019-11-16 14:04:35 GMT 40.988708 -83.127258 39,000 122 479 0
2019-11-16 14:04:31 GMT 40.994568 -83.139343 39,000 122 479 0
2019-11-16 14:04:28 GMT 40.997066 -83.144470 39,000 122 479 0
2019-11-16 14:04:25 GMT 41.009903 -83.170898 39,000 122 479 0
2019-11-16 14:04:18 GMT 41.009903 -83.170898 39,000 122 479 0
2019-11-16 14:04:14 GMT 41.013016 -83.177307 39,000 122 479 -64
2019-11-16 14:04:10 GMT 41.019596 -83.190849 39,000 122 479 0
2019-11-16 14:04:05 GMT 41.025463 -83.202957 39,000 122 479 0
2019-11-16 14:04:00 GMT 41.036495 -83.225677 39,000 122 479 0
2019-11-16 14:03:56 GMT 41.036495 -83.225677 39,000 122 479 0
2019-11-16 14:03:52 GMT 41.040070 -83.233032 39,000 122 479 0
2019-11-16 14:03:46 GMT 41.050598 -83.254822 39,000 122 479 0
2019-11-16 14:03:38 GMT 41.058014 -83.270081 39,000 122 479 0
2019-11-16 14:03:33 GMT 41.062225 -83.278748 39,000 122 479 0
2019-11-16 14:03:27 GMT 41.070557 -83.296021 39,000 122 480 0
2019-11-16 14:03:24 GMT 41.074493 -83.304199 39,000 122 480 0
2019-11-16 14:03:13 GMT 41.086716 -83.329407 39,000 122 480 0
2019-11-16 14:03:07 GMT 41.093987 -83.344528 39,000 122 480 0
2019-11-16 14:03:03 GMT 41.098644 -83.354141 39,000 122 480 0
2019-11-16 14:02:55 GMT 41.111069 -83.379883 39,000 122 480 0
2019-11-16 14:02:47 GMT 41.118713 -83.395752 39,000 122 480 0
2019-11-16 14:02:42 GMT 41.123840 -83.406372 39,000 122 480 0
2019-11-16 14:02:35 GMT 41.131882 -83.422997 39,000 122 480 0
2019-11-16 14:02:32 GMT 41.135696 -83.430908 39,000 122 480 0
2019-11-16 14:02:26 GMT 41.143021 -83.445984 39,000 122 480 0
2019-11-16 14:02:22 GMT 41.148514 -83.457397 39,000 122 480 0
2019-11-16 14:02:11 GMT 41.166138 -83.493896 39,000 122 481 0
2019-11-16 14:02:07 GMT 41.172241 -83.506584 39,000 122 481 0
2019-11-16 14:02:02 GMT 41.172241 -83.506584 39,000 122 481 0
2019-11-16 14:01:56 GMT 41.179184 -83.520935 39,000 122 481 0
2019-11-16 14:01:51 GMT 41.184673 -83.532425 39,000 122 481 0
2019-11-16 14:01:48 GMT 41.187790 -83.538879 39,000 122 482 0
2019-11-16 14:01:43 GMT 41.196213 -83.556274 39,000 122 482 0
2019-11-16 14:01:38 GMT 41.201340 -83.566956 39,000 122 482 0
2019-11-16 14:01:31 GMT 41.209160 -83.583107 39,000 122 482 0
2019-11-16 14:01:28 GMT 41.213814 -83.592850 39,000 122 482 0
2019-11-16 14:01:20 GMT 41.222305 -83.610535 39,000 122 483 0
2019-11-16 14:01:17 GMT 41.226151 -83.618507 39,000 122 483 0
2019-11-16 14:01:14 GMT 41.230339 -83.627243 39,000 122 482 0
2019-11-16 14:01:10 GMT 41.233795 -83.634460 39,000 122 482 0
2019-11-16 14:01:03 GMT 41.242447 -83.652405 39,000 122 482 0
2019-11-16 14:00:59 GMT 41.247005 -83.661888 39,000 122 483 0
2019-11-16 14:00:56 GMT 41.251427 -83.671127 39,000 122 484 0
2019-11-16 14:00:50 GMT 41.258240 -83.685364 39,000 122 483 0
2019-11-16 14:00:47 GMT 41.262180 -83.693596 39,000 122 482 0
2019-11-16 14:00:43 GMT 41.266937 -83.703613 39,000 122 482 0
2019-11-16 14:00:40 GMT 41.269913 -83.709900 39,000 122 482 -64
2019-11-16 14:00:32 GMT 41.279358 -83.729675 39,000 122 483 0
2019-11-16 14:00:29 GMT 41.283035 -83.737419 39,000 122 483 0
2019-11-16 14:00:20 GMT 41.294083 -83.760742 39,000 122 483 0
2019-11-16 14:00:12 GMT 41.302681 -83.778801 39,000 122 484 -64
2019-11-16 14:00:08 GMT 41.310654 -83.795654 39,000 122 483 -64
2019-11-16 14:00:00 GMT 41.318138 -83.811455 39,000 122 483 0
2019-11-16 13:59:57 GMT 41.321953 -83.819504 39,000 122 484 0
2019-11-16 13:59:52 GMT 41.328003 -83.832336 39,000 122 484 0
2019-11-16 13:59:49 GMT 41.330662 -83.837852 39,000 122 484 0
2019-11-16 13:59:46 GMT 41.334335 -83.845657 39,000 122 484 0
2019-11-16 13:59:40 GMT 41.347790 -83.874001 39,000 122 484 0
2019-11-16 13:59:34 GMT 41.347790 -83.874001 39,000 122 484 0
2019-11-16 13:59:31 GMT 41.352680 -83.884361 39,000 122 484 0
2019-11-16 13:59:28 GMT 41.356262 -83.891853 39,000 122 484 0
2019-11-16 13:59:24 GMT 41.362564 -83.905212 39,000 122 484 0
2019-11-16 13:59:18 GMT 41.368786 -83.918320 39,000 122 484 0
2019-11-16 13:59:14 GMT 41.371487 -83.924065 39,000 122 484 0
2019-11-16 13:59:10 GMT 41.377815 -83.937424 39,000 122 484 0
2019-11-16 13:59:06 GMT 41.390213 -83.963638 39,000 122 484 0
2019-11-16 13:58:59 GMT 41.394714 -83.973167 39,000 122 484 0
2019-11-16 13:58:52 GMT 41.398624 -83.981537 39,000 122 484 0
2019-11-16 13:58:49 GMT 41.402817 -83.990349 39,000 122 484 0
2019-11-16 13:58:43 GMT 41.410172 -84.006020 39,000 122 484 -64
2019-11-16 13:58:38 GMT 41.414795 -84.015823 39,000 122 484 0
2019-11-16 13:58:35 GMT 41.420013 -84.026932 39,000 122 484 0
2019-11-16 13:58:31 GMT 41.422741 -84.032761 39,000 122 484 0
2019-11-16 13:58:27 GMT 41.428207 -84.044350 39,000 122 484 0
2019-11-16 13:58:22 GMT 41.437820 -84.064819 39,000 122 484 0
2019-11-16 13:58:18 GMT 41.440247 -84.069817 39,000 122 484 0
2019-11-16 13:58:13 GMT 41.446064 -84.082199 39,000 122 484 -64
2019-11-16 13:58:06 GMT 41.453247 -84.097282 39,000 122 484 0
2019-11-16 13:58:01 GMT 41.460434 -84.112328 39,000 122 484 0
2019-11-16 13:57:56 GMT 41.465240 -84.122444 39,000 122 483 0
2019-11-16 13:57:51 GMT 41.471527 -84.135727 39,000 122 483 0
2019-11-16 13:57:45 GMT 41.477737 -84.148842 39,000 122 483 0
2019-11-16 13:57:39 GMT 41.484795 -84.163643 39,000 122 482 0
2019-11-16 13:57:36 GMT 41.490147 -84.174950 39,000 122 482 0
2019-11-16 13:57:28 GMT 41.498760 -84.193024 39,000 122 481 0
2019-11-16 13:57:25 GMT 41.502205 -84.200302 39,000 122 481 0
2019-11-16 13:57:18 GMT 41.510910 -84.218575 39,000 122 480 0
2019-11-16 13:57:15 GMT 41.515331 -84.227837 39,000 122 480 0
2019-11-16 13:57:07 GMT 41.529716 -84.258049 39,000 122 479 0
2019-11-16 13:57:03 GMT 41.529716 -84.258049 39,000 122 479 0
2019-11-16 13:56:59 GMT 41.534454 -84.268074 39,000 122 479 0
2019-11-16 13:56:56 GMT 41.539261 -84.278297 39,000 122 479 0
2019-11-16 13:56:49 GMT 41.545033 -84.290558 39,000 121 479 0
2019-11-16 13:56:44 GMT 41.557137 -84.316360 39,000 121 479 0
2019-11-16 13:56:39 GMT 41.557137 -84.316360 39,000 121 479 0
2019-11-16 13:56:34 GMT 41.562790 -84.328369 39,000 121 479 0
2019-11-16 13:56:30 GMT 41.566406 -84.336113 39,000 121 479 0
2019-11-16 13:56:27 GMT 41.571568 -84.347153 39,000 121 479 0
2019-11-16 13:56:24 GMT 41.577805 -84.360390 39,000 121 479 0
2019-11-16 13:56:21 GMT 41.577805 -84.360390 39,000 121 479 0
2019-11-16 13:56:14 GMT 41.588234 -84.382729 39,000 121 479 0
2019-11-16 13:56:10 GMT 41.590073 -84.386734 39,000 121 479 0
2019-11-16 13:56:04 GMT 41.596893 -84.401253 39,000 121 479 0
2019-11-16 13:56:01 GMT 41.602154 -84.412491 39,000 121 479 0
2019-11-16 13:55:54 GMT 41.613976 -84.437790 39,000 121 479 0
2019-11-16 13:55:51 GMT 41.613976 -84.437790 39,000 121 479 0
2019-11-16 13:55:43 GMT 41.622253 -84.455589 39,000 121 478 0
2019-11-16 13:55:39 GMT 41.632050 -84.476624 39,000 121 478 0
2019-11-16 13:55:31 GMT 41.635437 -84.483902 39,000 121 478 0
2019-11-16 13:55:28 GMT 41.640324 -84.494446 39,000 121 478 0
2019-11-16 13:55:24 GMT 41.645142 -84.504715 39,000 121 478 0
2019-11-16 13:55:20 GMT 41.649811 -84.514763 39,000 121 478 0
2019-11-16 13:55:17 GMT 41.653061 -84.521820 39,000 121 479 0
2019-11-16 13:55:13 GMT 41.656906 -84.530060 39,000 121 478 0
2019-11-16 13:55:08 GMT 41.666565 -84.550972 39,000 121 479 0
2019-11-16 13:55:02 GMT 41.669632 -84.557457 39,000 121 479 0
2019-11-16 13:54:57 GMT 41.676262 -84.571793 39,000 121 479 0
2019-11-16 13:54:53 GMT 41.680710 -84.581367 39,000 121 479 0
2019-11-16 13:54:47 GMT 41.693710 -84.609207 39,000 121 480 0
2019-11-16 13:54:40 GMT 41.697006 -84.616203 39,000 121 480 0
2019-11-16 13:54:36 GMT 41.701584 -84.625999 39,000 121 480 0
2019-11-16 13:54:32 GMT 41.704468 -84.632301 39,000 121 480 0
2019-11-16 13:54:27 GMT 41.711243 -84.646912 39,000 121 480 0
2019-11-16 13:54:23 GMT 41.716160 -84.657448 39,000 121 480 0
2019-11-16 13:54:17 GMT 41.723282 -84.672813 39,000 121 480 0
2019-11-16 13:54:12 GMT 41.728214 -84.683388 39,000 121 480 0
2019-11-16 13:54:06 GMT 41.735229 -84.698532 39,000 122 480 -64
2019-11-16 13:54:00 GMT 41.742325 -84.713577 39,000 119 479 0
2019-11-16 13:53:55 GMT 41.747581 -84.725220 39,000 119 480 0
2019-11-16 13:53:52 GMT 41.752716 -84.737427 39,000 117 480 0
2019-11-16 13:53:44 GMT 41.759079 -84.754089 39,000 115 480 0
2019-11-16 13:53:40 GMT 41.762989 -84.765144 39,000 109 482 0
2019-11-16 13:53:37 GMT 41.766449 -84.775749 39,000 111 482 0
2019-11-16 13:53:31 GMT 41.771976 -84.794334 39,000 109 482 -64
2019-11-16 13:53:25 GMT 41.776165 -84.810684 39,000 106 483 -64
2019-11-16 13:53:20 GMT 41.779514 -84.825249 39,000 104 483 0
2019-11-16 13:53:17 GMT 41.783287 -84.844917 39,000 102 482 64
2019-11-16 13:53:09 GMT 41.785355 -84.858086 39,000 100 484 0
2019-11-16 13:53:04 GMT 41.787060 -84.870407 39,000 100 484 0
2019-11-16 13:52:58 GMT 41.789520 -84.888672 39,000 99 487 64
2019-11-16 13:52:53 GMT 41.791573 -84.903687 39,000 100 485 0
2019-11-16 13:52:49 GMT 41.792679 -84.912270 39,000 100 485 0
2019-11-16 13:52:43 GMT 41.795151 -84.930557 39,000 100 485 0
2019-11-16 13:52:39 GMT 41.796661 -84.942108 39,000 99 486 0
2019-11-16 13:52:33 GMT 41.799408 -84.962769 39,000 99 487 0
2019-11-16 13:52:28 GMT 41.800919 -84.974319 39,000 99 486 0
2019-11-16 13:52:22 GMT 41.803444 -84.993553 39,000 99 486 0
2019-11-16 13:52:18 GMT 41.804981 -85.005692 39,000 99 486 0
2019-11-16 13:52:12 GMT 41.807495 -85.025238 39,000 99 487 0
2019-11-16 13:52:07 GMT 41.808846 -85.035652 39,000 99 486 0
2019-11-16 13:52:01 GMT 41.812801 -85.066757 39,000 99 487 0
2019-11-16 13:51:58 GMT 41.812801 -85.066757 39,000 99 488 0
2019-11-16 13:51:54 GMT 41.814331 -85.078690 39,000 99 487 64
2019-11-16 13:51:51 GMT 41.815315 -85.086365 39,000 99 487 0
2019-11-16 13:51:47 GMT 41.816666 -85.096779 39,000 99 487 0
2019-11-16 13:51:42 GMT 41.818619 -85.111916 39,000 99 487 0
2019-11-16 13:51:39 GMT 41.819458 -85.118752 39,000 99 487 0
2019-11-16 13:51:36 GMT 41.820969 -85.130623 39,000 99 487 0
2019-11-16 13:51:29 GMT 41.823303 -85.148788 39,000 99 487 0
2019-11-16 13:51:22 GMT 41.826393 -85.173172 39,000 99 488 0
2019-11-16 13:51:19 GMT 41.827286 -85.180000 39,000 99 488 0
2019-11-16 13:51:14 GMT 41.828888 -85.192795 39,000 99 489 0
2019-11-16 13:51:11 GMT 41.831097 -85.210411 39,000 99 488 0
2019-11-16 13:51:08 GMT 41.832596 -85.222321 39,000 99 489 -64
2019-11-16 13:51:05 GMT 41.832596 -85.222321 39,000 99 490 0
2019-11-16 13:51:01 GMT 41.834061 -85.233994 39,000 99 487 64
2019-11-16 13:50:57 GMT 41.835659 -85.247139 39,000 100 489 0
2019-11-16 13:50:54 GMT 41.836449 -85.253395 39,000 99 489 0
2019-11-16 13:50:51 GMT 41.837894 -85.265022 39,000 99 489 0
2019-11-16 13:50:48 GMT 41.839096 -85.274567 39,000 99 489 0
2019-11-16 13:50:45 GMT 41.840195 -85.283241 39,000 99 489 0
2019-11-16 13:50:41 GMT 41.841797 -85.296104 39,000 99 490 0
2019-11-16 13:50:37 GMT 41.843399 -85.308586 39,000 99 490 0
2019-11-16 13:50:32 GMT 41.844875 -85.319633 39,000 100 489 0
2019-11-16 13:50:29 GMT 41.845852 -85.327103 39,000 100 489 0
2019-11-16 13:50:26 GMT 41.847530 -85.339943 39,000 100 489 0
2019-11-16 13:50:23 GMT 41.848709 -85.348915 39,000 100 489 0
2019-11-16 13:50:20 GMT 41.849945 -85.358154 39,000 99 487 64
2019-11-16 13:50:17 GMT 41.851181 -85.367393 39,000 99 488 0
2019-11-16 13:50:11 GMT 41.853115 -85.382294 39,000 99 489 0
2019-11-16 13:50:07 GMT 41.855164 -85.397751 39,000 99 488 -64
2019-11-16 13:50:03 GMT 41.856308 -85.406654 39,000 99 488 0
2019-11-16 13:49:57 GMT 41.859238 -85.429253 39,000 99 487 0
2019-11-16 13:49:53 GMT 41.860977 -85.442612 39,000 99 487 64
2019-11-16 13:49:49 GMT 41.863266 -85.460396 39,000 99 486 0
2019-11-16 13:49:45 GMT 41.863266 -85.460396 39,000 99 485 192
2019-11-16 13:49:41 GMT 41.865280 -85.475815 39,000 99 484 448
2019-11-16 13:49:38 GMT 41.865921 -85.481125 38,975 99 484 960
2019-11-16 13:49:35 GMT 41.867126 -85.490623 38,825 99 484 1280
2019-11-16 13:49:29 GMT 41.870499 -85.516891 38,525 99 484 1280
2019-11-16 13:49:26 GMT 41.870499 -85.516891 38,550 99 483 1280
2019-11-16 13:49:23 GMT 41.871643 -85.526070 38,525 99 484 1216
2019-11-16 13:49:17 GMT 41.874115 -85.545540 38,525 99 483 1280
2019-11-16 13:49:14 GMT 41.874947 -85.552071 38,425 99 483 1280
2019-11-16 13:49:11 GMT 41.876358 -85.563271 38,325 99 483 1344
2019-11-16 13:49:07 GMT 41.877640 -85.573631 38,325 99 483 1216
2019-11-16 13:49:04 GMT 41.878906 -85.583366 38,250 99 483 960
2019-11-16 13:49:00 GMT 41.880211 -85.593651 38,175 99 482 960
2019-11-16 13:48:56 GMT 41.882996 -85.615768 38,100 99 482 1216
2019-11-16 13:48:48 GMT 41.884781 -85.629875 37,975 99 482 1280
2019-11-16 13:48:45 GMT 41.885651 -85.636993 37,925 99 481 1216
2019-11-16 13:48:42 GMT 41.886772 -85.645775 37,900 99 481 1216
2019-11-16 13:48:38 GMT 41.888077 -85.656342 37,700 99 481 1216
2019-11-16 13:48:34 GMT 41.889999 -85.671638 37,675 99 480 1216
2019-11-16 13:48:31 GMT 41.891056 -85.679878 37,575 99 480 0
2019-11-16 13:48:28 GMT 41.892033 -85.687805 37,575 99 480 1280
2019-11-16 13:48:22 GMT 41.894127 -85.704536 37,475 99 480 1152
2019-11-16 13:48:19 GMT 41.896828 -85.726189 37,325 99 479 1088
2019-11-16 13:48:15 GMT 41.896828 -85.726189 37,325 99 479 1216
2019-11-16 13:48:11 GMT 41.899429 -85.747231 37,200 99 478 1344
2019-11-16 13:48:08 GMT 41.899429 -85.747231 36,925 99 478 1280
2019-11-16 13:48:04 GMT 41.900738 -85.757744 36,200 99 476 1408
2019-11-16 13:48:00 GMT 41.903275 -85.777878 36,700 99 477 1280
2019-11-16 13:47:57 GMT 41.903275 -85.777878 36,875 99 477 1344
2019-11-16 13:47:53 GMT 41.904926 -85.791023 36,800 99 477 1472
2019-11-16 13:47:49 GMT 41.906296 -85.802101 36,750 99 477 1536
2019-11-16 13:47:45 GMT 41.907814 -85.814339 36,625 99 477 1472
2019-11-16 13:47:39 GMT 41.909729 -85.829498 36,150 99 476 1344
2019-11-16 13:47:34 GMT 41.912155 -85.848976 36,250 99 476 1536
2019-11-16 13:47:30 GMT 41.913300 -85.858032 36,250 99 476 1536
2019-11-16 13:47:27 GMT 41.914192 -85.865311 36,200 99 476 1408
2019-11-16 13:47:23 GMT 41.915726 -85.877502 35,950 99 475 1536
2019-11-16 13:47:20 GMT 41.916893 -85.886833 35,950 99 475 1408
2019-11-16 13:47:16 GMT 41.918381 -85.898712 35,925 99 475 1600
2019-11-16 13:47:12 GMT 41.920120 -85.912399 35,850 99 475 1600
2019-11-16 13:47:09 GMT 41.920662 -85.916725 35,700 99 475 1664
2019-11-16 13:47:06 GMT 41.921814 -85.926010 35,675 99 475 1664
2019-11-16 13:47:03 GMT 41.922943 -85.935310 35,625 99 475 1856
2019-11-16 13:46:58 GMT 41.924622 -85.948982 35,425 99 475 1920
2019-11-16 13:46:55 GMT 41.926018 -85.960289 35,325 99 476 1984
2019-11-16 13:46:51 GMT 41.926994 -85.968147 35,250 99 476 1984
2019-11-16 13:46:48 GMT 41.928497 -85.980377 34,925 99 477 2112
2019-11-16 13:46:44 GMT 41.929642 -85.989990 34,975 99 477 2112
2019-11-16 13:46:41 GMT 41.931183 -86.002831 34,825 99 478 2048
2019-11-16 13:46:38 GMT 41.932938 -86.016830 34,525 99 478 2048
2019-11-16 13:46:31 GMT 41.934082 -86.026443 34,500 99 478 1984
2019-11-16 13:46:28 GMT 41.935684 -86.039619 34,475 99 478 2048
2019-11-16 13:46:24 GMT 41.938492 -86.063065 34,250 99 479 2048
2019-11-16 13:46:20 GMT 41.938492 -86.063065 34,150 99 479 2048
2019-11-16 13:46:15 GMT 41.939850 -86.074196 34,000 99 480 2112
2019-11-16 13:46:12 GMT 41.940948 -86.083252 33,900 99 480 2176
2019-11-16 13:46:06 GMT 41.943054 -86.100914 33,650 95 483 2240
2019-11-16 13:46:03 GMT 41.944427 -86.112335 33,550 99 481 2112
2019-11-16 13:46:00 GMT 41.945477 -86.121185 33,500 99 482 2112
2019-11-16 13:45:55 GMT 41.947289 -86.136200 32,350 95 483 2240
2019-11-16 13:45:49 GMT 41.949280 -86.152412 33,125 99 482 2176
2019-11-16 13:45:45 GMT 41.950783 -86.164810 32,900 99 482 2240
2019-11-16 13:45:41 GMT 41.952225 -86.176949 32,750 97 482 2304
2019-11-16 13:45:37 GMT 41.953354 -86.188248 32,600 96 482 2240
2019-11-16 13:45:34 GMT 41.954269 -86.198669 32,450 95 483 2240
2019-11-16 13:45:29 GMT 41.955669 -86.220192 32,300 94 483 2240
2019-11-16 13:45:26 GMT 41.955669 -86.220192 32,150 92 483 2304
2019-11-16 13:45:23 GMT 41.956043 -86.229195 32,100 92 484 2304
2019-11-16 13:45:19 GMT 41.956375 -86.239433 31,950 91 484 2304
2019-11-16 13:45:15 GMT 41.956509 -86.254814 31,775 89 486 2240
2019-11-16 13:45:11 GMT 41.956463 -86.265350 31,700 89 487 2304
2019-11-16 13:45:08 GMT 41.956375 -86.277382 31,450 89 488 2368
2019-11-16 13:45:02 GMT 41.956226 -86.291924 31,300 89 488 2304
2019-11-16 13:44:59 GMT 41.956146 -86.300980 31,150 89 489 2112
2019-11-16 13:44:56 GMT 41.956100 -86.308533 30,850 89 488 1600
2019-11-16 13:44:53 GMT 41.955997 -86.318237 31,025 89 486 1664
2019-11-16 13:44:50 GMT 41.955917 -86.327881 30,975 89 487 1536
2019-11-16 13:44:47 GMT 41.955715 -86.349281 30,800 89 486 1664
2019-11-16 13:44:44 GMT 41.955643 -86.357719 30,725 88 475 1792
2019-11-16 13:44:40 GMT 41.955528 -86.367935 30,650 89 485 1664
2019-11-16 13:44:37 GMT 41.955528 -86.367935 30,500 89 484 1728
2019-11-16 13:44:33 GMT 41.955231 -86.395485 30,300 89 481 1792
2019-11-16 13:44:29 GMT 41.955231 -86.395485 29,725 89 483 1728
2019-11-16 13:44:26 GMT 41.955158 -86.402359 30,250 89 482 1728
2019-11-16 13:44:21 GMT 41.954830 -86.425674 30,050 89 481 1728
2019-11-16 13:44:17 GMT 41.954830 -86.425674 30,000 89 480 1664
2019-11-16 13:44:14 GMT 41.954739 -86.434296 29,675 88 479 1664
2019-11-16 13:44:11 GMT 41.954597 -86.443497 29,850 88 479 1728
2019-11-16 13:44:07 GMT 41.954414 -86.456848 29,800 88 478 1728
2019-11-16 13:44:03 GMT 41.954224 -86.471954 29,550 88 477 1792
2019-11-16 13:44:00 GMT 41.954086 -86.480225 29,500 88 476 1728
2019-11-16 13:43:57 GMT 41.953995 -86.485809 29,425 88 476 1728
2019-11-16 13:43:54 GMT 41.953857 -86.495857 29,375 88 475 1792
2019-11-16 13:43:50 GMT 41.953667 -86.507622 29,225 88 474 1792
2019-11-16 13:43:47 GMT 41.953484 -86.518486 29,025 89 463 0
2019-11-16 13:43:44 GMT 41.953308 -86.529572 29,025 88 472 1856
2019-11-16 13:43:41 GMT 41.953262 -86.534004 28,950 88 471 1856
2019-11-16 13:43:37 GMT 41.953110 -86.544479 28,750 88 470 1856
2019-11-16 13:43:34 GMT 41.952896 -86.556160 28,700 88 470 1920
2019-11-16 13:43:30 GMT 41.952621 -86.577698 28,500 89 466 1856
2019-11-16 13:43:26 GMT 41.952503 -86.586380 28,450 89 468 1920
2019-11-16 13:43:23 GMT 41.952503 -86.586380 28,375 89 467 1856
2019-11-16 13:43:19 GMT 41.952347 -86.596802 28,250 89 466 1856
2019-11-16 13:43:16 GMT 41.952209 -86.607475 27,950 89 460 2112
2019-11-16 13:43:13 GMT 41.951992 -86.626747 25,525 88 454 2304
2019-11-16 13:43:10 GMT 41.951992 -86.626747 27,975 89 463 1920
2019-11-16 13:43:07 GMT 41.951900 -86.632751 27,650 89 461 2176
2019-11-16 13:43:04 GMT 41.951797 -86.642799 27,750 89 462 2112
2019-11-16 13:43:01 GMT 41.951714 -86.650253 27,650 89 461 2176
2019-11-16 13:42:58 GMT 41.951527 -86.661369 27,500 89 460 2112
2019-11-16 13:42:55 GMT 41.951435 -86.668526 27,425 89 460 2112
2019-11-16 13:42:52 GMT 41.951340 -86.676514 27,350 89 459 2112
2019-11-16 13:42:48 GMT 41.951248 -86.685875 27,000 88 457 2176
2019-11-16 13:42:45 GMT 41.951061 -86.697205 27,050 88 458 2240
2019-11-16 13:42:41 GMT 41.950928 -86.706848 26,925 88 457 2176
2019-11-16 13:42:37 GMT 41.950642 -86.728630 26,450 88 454 2304
2019-11-16 13:42:34 GMT 41.950642 -86.728630 26,200 88 453 2304
2019-11-16 13:42:30 GMT 41.950516 -86.737061 26,525 88 454 2304
2019-11-16 13:42:27 GMT 41.950363 -86.747787 26,350 88 453 2304
2019-11-16 13:42:24 GMT 41.950241 -86.754539 26,200 87 435 2496
2019-11-16 13:42:21 GMT 41.950085 -86.764656 26,150 88 452 2304
2019-11-16 13:42:17 GMT 41.949944 -86.773598 26,075 88 452 2304
2019-11-16 13:42:12 GMT 41.949665 -86.787582 25,875 88 451 2304
2019-11-16 13:42:09 GMT 41.949554 -86.795677 25,725 88 450 2304
2019-11-16 13:42:06 GMT 41.949341 -86.807068 25,575 88 448 2304
2019-11-16 13:42:00 GMT 41.949051 -86.820953 25,050 88 444 2112
2019-11-16 13:41:57 GMT 41.948826 -86.831528 24,375 88 438 2368
2019-11-16 13:41:54 GMT 41.948639 -86.841431 25,050 88 443 2240
2019-11-16 13:41:51 GMT 41.948456 -86.848076 24,850 88 442 2368
2019-11-16 13:41:47 GMT 41.947990 -86.869469 24,825 88 442 2432
2019-11-16 13:41:43 GMT 41.947990 -86.869469 24,775 88 441 2432
2019-11-16 13:41:39 GMT 41.947708 -86.880394 24,550 88 440 2304
2019-11-16 13:41:35 GMT 41.947384 -86.892654 24,450 88 439 2304
2019-11-16 13:41:32 GMT 41.947266 -86.897797 24,350 88 438 2368
2019-11-16 13:41:29 GMT 41.947083 -86.905663 23,150 87 436 2496
2019-11-16 13:41:25 GMT 41.946716 -86.919212 23,975 87 435 2560
2019-11-16 13:41:22 GMT 41.946545 -86.925423 23,925 87 434 2624
2019-11-16 13:41:18 GMT 41.946259 -86.935127 23,750 87 434 2624
2019-11-16 13:41:15 GMT 41.946030 -86.943428 23,600 88 433 2560
2019-11-16 13:41:12 GMT 41.945755 -86.954422 23,425 88 432 2496
2019-11-16 13:41:07 GMT 41.945427 -86.967010 23,225 88 431 2496
2019-11-16 13:41:03 GMT 41.945251 -86.976578 22,975 88 429 2560
2019-11-16 13:40:59 GMT 41.945068 -86.987251 22,900 89 428 2624
2019-11-16 13:40:56 GMT 41.944977 -86.992805 22,625 89 426 2688
2019-11-16 13:40:53 GMT 41.944931 -87.001045 22,700 89 426 2688
2019-11-16 13:40:50 GMT 41.944824 -87.011078 22,400 91 425 3776
2019-11-16 13:40:46 GMT 41.944683 -87.023979 22,325 89 423 2624
2019-11-16 13:40:42 GMT 41.944592 -87.032608 21,875 90 424 3648
2019-11-16 13:40:39 GMT 41.944473 -87.037872 21,900 89 423 3328
2019-11-16 13:40:34 GMT 41.944496 -87.054070 21,625 92 425 3904
2019-11-16 13:40:31 GMT 41.944683 -87.060646 21,500 93 425 3904
2019-11-16 13:40:28 GMT 41.945148 -87.070869 21,075 94 424 2816
2019-11-16 13:40:25 GMT 41.945480 -87.077202 20,700 94 424 2944
2019-11-16 13:40:17 GMT 41.946487 -87.096298 20,800 94 422 2816
2019-11-16 13:40:14 GMT 41.947662 -87.117111 20,525 94 419 2752
2019-11-16 13:40:10 GMT 41.947662 -87.117111 20,375 94 418 2752
2019-11-16 13:40:07 GMT 41.948036 -87.123878 20,250 94 418 2752
2019-11-16 13:40:03 GMT 41.948685 -87.135193 20,050 94 415 3072
2019-11-16 13:39:59 GMT 41.949142 -87.143181 19,900 94 415 3072
2019-11-16 13:39:55 GMT 41.950222 -87.160805 19,575 94 413 3328
2019-11-16 13:39:47 GMT 41.951157 -87.175331 19,000 95 412 3392
2019-11-16 13:39:43 GMT 41.952530 -87.196678 18,900 95 410 2880
2019-11-16 13:39:39 GMT 41.952530 -87.196678 18,750 95 409 2816
2019-11-16 13:39:34 GMT 41.953388 -87.209534 18,525 95 406 3072
2019-11-16 13:39:30 GMT 41.954086 -87.219582 18,300 94 405 3328
2019-11-16 13:39:26 GMT 41.954727 -87.229385 18,025 94 404 3648
2019-11-16 13:39:23 GMT 41.955231 -87.237625 17,875 94 404 3840
2019-11-16 13:39:19 GMT 41.955578 -87.243393 17,725 94 404 3904
2019-11-16 13:39:16 GMT 41.956650 -87.261093 17,375 94 405 3904
2019-11-16 13:39:13 GMT 41.956650 -87.261093 17,125 94 405 3776
2019-11-16 13:39:10 GMT 41.957108 -87.269402 17,050 94 404 3712
2019-11-16 13:39:07 GMT 41.957809 -87.281647 16,825 94 404 3584
2019-11-16 13:39:04 GMT 41.957809 -87.281647 16,750 94 404 3456
2019-11-16 13:39:00 GMT 41.958527 -87.293617 16,500 94 402 3072
2019-11-16 13:38:57 GMT 41.959396 -87.309227 16,350 94 392 1792
2019-11-16 13:38:50 GMT 41.959854 -87.317398 16,075 94 396 2304
2019-11-16 13:38:47 GMT 41.960220 -87.323517 15,950 94 392 1792
2019-11-16 13:38:44 GMT 41.960861 -87.334946 15,850 94 389 1536
2019-11-16 13:38:40 GMT 41.961273 -87.342369 15,800 94 385 1280
2019-11-16 13:38:36 GMT 41.961906 -87.351845 15,700 94 374 768
2019-11-16 13:38:32 GMT 41.962326 -87.358559 15,675 94 371 832
2019-11-16 13:38:28 GMT 41.962967 -87.368210 15,650 93 292 2304
2019-11-16 13:38:24 GMT 41.963745 -87.380760 15,525 95 351 768
2019-11-16 13:38:21 GMT 41.964188 -87.387299 15,500 95 348 832
2019-11-16 13:38:17 GMT 41.965073 -87.400169 15,375 95 337 1344
2019-11-16 13:38:11 GMT 41.965538 -87.406845 15,325 95 334 1600
2019-11-16 13:38:08 GMT 41.966003 -87.412781 15,200 95 327 2112
2019-11-16 13:38:04 GMT 41.966629 -87.420898 15,050 96 324 2496
2019-11-16 13:38:01 GMT 41.967133 -87.427704 14,900 96 320 3200
2019-11-16 13:37:58 GMT 41.967728 -87.434822 14,700 96 319 3392
2019-11-16 13:37:54 GMT 41.968426 -87.442871 14,475 96 318 3456
2019-11-16 13:37:48 GMT 41.969101 -87.450737 14,275 96 316 3456
2019-11-16 13:37:45 GMT 41.969742 -87.457916 14,025 96 314 3584
2019-11-16 13:37:41 GMT 41.970612 -87.468224 13,800 96 312 3648
2019-11-16 13:37:38 GMT 41.970940 -87.472824 13,675 95 312 3648
2019-11-16 13:37:35 GMT 41.971390 -87.478638 13,375 95 311 3712
2019-11-16 13:37:30 GMT 41.971916 -87.485916 13,125 95 311 3776
2019-11-16 13:37:27 GMT 41.972427 -87.493454 12,875 95 310 3712
2019-11-16 13:37:24 GMT 41.972755 -87.498055 12,475 95 308 3392
2019-11-16 13:37:21 GMT 41.973778 -87.512939 12,300 95 306 3328
2019-11-16 13:37:16 GMT 41.973778 -87.512939 12,300 95 306 3328
2019-11-16 13:37:13 GMT 41.974136 -87.518211 12,125 95 305 3392
2019-11-16 13:37:10 GMT 41.974594 -87.525391 11,450 93 301 3456
2019-11-16 13:37:07 GMT 41.975327 -87.538315 11,725 94 302 3648
2019-11-16 13:37:04 GMT 41.975327 -87.538315 11,500 93 301 3648
2019-11-16 13:37:00 GMT 41.975601 -87.544495 11,400 93 301 3584
2019-11-16 13:36:56 GMT 41.975922 -87.551582 10,850 93 292 2304
2019-11-16 13:36:52 GMT 41.976246 -87.559883 10,975 93 296 2432
2019-11-16 13:36:49 GMT 41.976479 -87.564484 10,825 93 291 2304
2019-11-16 13:36:45 GMT 41.976757 -87.570107 10,725 93 288 2688
2019-11-16 13:36:41 GMT 41.977158 -87.578262 10,350 93 284 3520
2019-11-16 13:36:38 GMT 41.977505 -87.585754 10,225 93 284 3584
2019-11-16 13:36:35 GMT 41.977615 -87.589066 10,025 93 283 3648
2019-11-16 13:36:31 GMT 41.977936 -87.596992 9,800 93 282 3776
2019-11-16 13:36:28 GMT 41.978107 -87.600510 9,650 93 282 3776
2019-11-16 13:36:25 GMT 41.978386 -87.606964 9,500 93 282 3776
2019-11-16 13:36:22 GMT 41.978714 -87.614281 9,200 93 281 3776
2019-11-16 13:36:19 GMT 41.978897 -87.618652 9,100 93 281 3776
2019-11-16 13:36:15 GMT 41.979179 -87.625099 8,825 93 281 3776
2019-11-16 13:36:11 GMT 41.979458 -87.630852 8,500 93 280 3648
2019-11-16 13:36:08 GMT 41.979813 -87.637817 8,500 93 280 3648
2019-11-16 13:36:03 GMT 41.980179 -87.646179 8,075 93 277 3136
2019-11-16 13:36:00 GMT 41.980408 -87.650986 7,950 93 277 3072
2019-11-16 13:35:57 GMT 41.980591 -87.655296 7,850 93 276 3008
2019-11-16 13:35:53 GMT 41.981140 -87.668900 7,375 93 269 2880
2019-11-16 13:35:50 GMT 41.981140 -87.668900 7,500 93 271 2880
2019-11-16 13:35:47 GMT 41.981365 -87.673584 7,325 93 269 2944
2019-11-16 13:35:44 GMT 41.981552 -87.677925 7,175 93 267 3200
2019-11-16 13:35:39 GMT 41.981873 -87.685692 6,475 94 266 4032
2019-11-16 13:35:36 GMT 41.982113 -87.690315 6,750 93 265 3840
2019-11-16 13:35:33 GMT 41.982376 -87.695122 6,550 94 266 3968
2019-11-16 13:35:29 GMT 41.982880 -87.704353 6,275 94 266 4096
2019-11-16 13:35:26 GMT 41.983017 -87.707481 6,050 94 267 3840
2019-11-16 13:35:23 GMT 41.983292 -87.712097 5,875 94 267 3584
2019-11-16 13:35:19 GMT 41.983788 -87.719765 5,600 95 268 3264
2019-11-16 13:35:16 GMT 41.984070 -87.723396 5,500 95 267 3072
2019-11-16 13:35:13 GMT 41.984528 -87.730141 5,300 95 265 2816
2019-11-16 13:35:10 GMT 41.984718 -87.732407 5,200 95 263 2752
2019-11-16 13:35:06 GMT 41.985325 -87.740395 5,025 96 260 2752
2019-11-16 13:35:03 GMT 41.985603 -87.744225 4,900 96 257 2944
2019-11-16 13:35:00 GMT 41.986038 -87.748985 4,750 97 257 3072
2019-11-16 13:34:57 GMT 41.986675 -87.756104 4,525 97 254 3264
2019-11-16 13:34:54 GMT 41.987457 -87.764221 4,225 96 251 3328
2019-11-16 13:34:51 GMT 41.987789 -87.767990 4,150 95 251 3392
2019-11-16 13:34:48 GMT 41.987789 -87.767990 4,075 94 249 3328
2019-11-16 13:34:45 GMT 41.988098 -87.773270 3,925 92 249 3200
2019-11-16 13:34:42 GMT 41.988255 -87.778847 3,725 90 248 2944
2019-11-16 13:34:38 GMT 41.988304 -87.785172 3,550 89 246 2496
2019-11-16 13:34:35 GMT 41.988255 -87.788239 3,400 88 242 2368
2019-11-16 13:34:32 GMT 41.988209 -87.793732 3,275 88 237 2240
2019-11-16 13:34:29 GMT 41.988117 -87.797562 3,225 87 235 2176
2019-11-16 13:34:25 GMT 41.987789 -87.808609 3,000 86 228 1984
2019-11-16 13:34:21 GMT 41.987789 -87.808609 2,750 86 218 2048
2019-11-16 13:34:18 GMT 41.987411 -87.817902 2,625 86 218 2048
2019-11-16 13:34:12 GMT 41.987183 -87.822647 2,625 86 215 2112
2019-11-16 13:34:09 GMT 41.987000 -87.827133 2,500 87 208 2048
2019-11-16 13:34:05 GMT 41.986904 -87.829819 2,450 86 203 1920
2019-11-16 13:34:02 GMT 41.986725 -87.834381 2,350 86 202 1728
2019-11-16 13:33:59 GMT 41.986542 -87.838753 2,225 86 192 1472
2019-11-16 13:33:56 GMT 41.986069 -87.848534 1,825 85 159 1536
2019-11-16 13:33:52 GMT 41.986069 -87.848534 2,025 86 181 1472
2019-11-16 13:33:48 GMT 41.985973 -87.850899 1,850 85 166 960
2019-11-16 13:33:45 GMT 41.985855 -87.853607 1,950 86 172 832
2019-11-16 13:33:42 GMT 41.985672 -87.857101 1,875 85 162 1152
2019-11-16 13:33:39 GMT 41.985443 -87.861473 1,800 85 158 1600
2019-11-16 13:33:36 GMT 41.985306 -87.864342 1,750 85 154 1536
2019-11-16 13:33:33 GMT 41.985092 -87.867630 1,650 85 146 1600
2019-11-16 13:33:30 GMT 41.984951 -87.869865 1,575 85 145 1792
2019-11-16 13:33:27 GMT 41.984577 -87.876320 1,475 85 142 2176
2019-11-16 13:33:23 GMT 41.984577 -87.876320 1,350 85 142 2432
2019-11-16 13:33:19 GMT 41.984440 -87.878876 950 87 144 3584
2019-11-16 13:33:15 GMT 41.984207 -87.883698 950 87 143 3456
2019-11-16 13:33:12 GMT 41.984161 -87.886009 775 88 147 3776
2019-11-16 13:33:08 GMT 41.984070 -87.889000 575 88 151 3584
2019-11-16 13:32:42 GMT 41.983887 -87.911034 200 90 82
2019-11-16 13:32:36 GMT 41.983929 -87.914848 0 90 60
2019-11-16 13:31:09 GMT 41.983944 -87.918060 0 61 4
2019-11-16 13:30:58 GMT 41.983719 -87.918221 0 0 9
2019-11-16 13:30:15 GMT 41.982960 -87.918236 0 0 2
2019-11-16 13:30:11 GMT 41.982937 -87.918228 0 0 3
2019-11-16 13:28:24 GMT 41.980614 -87.918106 0 337 6
2019-11-16 13:27:53 GMT 41.979622 -87.917130 0 320 15
2019-11-16 13:27:31 GMT 41.978542 -87.915924 0 320 12
2019-11-16 13:27:08 GMT 41.977753 -87.915047 0 320 9
2019-11-16 13:27:01 GMT 41.977528 -87.914787 0 315 9
2019-11-16 13:26:48 GMT 41.977375 -87.914192 0 236 10
2019-11-16 13:26:43 GMT 41.977524 -87.913895 0 241 10
2019-11-16 13:26:19 GMT 41.977467 -87.912865 0 340 10
2019-11-16 13:26:05 GMT 41.976871 -87.912506 0 329 11
2019-11-16 13:25:58 GMT 41.976570 -87.912247 0 326 12
2019-11-16 13:25:46 GMT 41.975990 -87.911690 0 323 14
2019-11-16 13:25:36 GMT 41.975510 -87.911209 0 323 15
2019-11-16 13:25:11 GMT 41.974159 -87.909775 0 320 16
2019-11-16 13:25:08 GMT 41.973953 -87.909538 0 320 16
2019-11-16 13:24:47 GMT 41.972942 -87.908241 0 315 15
2019-11-16 13:24:37 GMT 41.972473 -87.907471 0 300 15
2019-11-16 13:24:20 GMT 41.972191 -87.906044 0 272 15
2019-11-16 13:24:15 GMT 41.972157 -87.905479 0 275 15
2019-11-16 13:24:02 GMT 41.972103 -87.904404 0 275 15
2019-11-16 13:23:51 GMT 41.972069 -87.903320 0 270 14
2019-11-16 13:23:22 GMT 41.972069 -87.901306 0 270 9
2019-11-16 13:23:10 GMT 41.972076 -87.900673 0 270 9
2019-11-16 13:23:00 GMT 41.972076 -87.900101 0 270 8
2019-11-16 13:22:45 GMT 41.972080 -87.899437 0 267 8
2019-11-16 13:22:31 GMT 41.972179 -87.898727 0 247 10
2019-11-16 13:22:06 GMT 41.972790 -87.897186 0 241 12
2019-11-16 13:21:53 GMT 41.973148 -87.896339 0 233 11
2019-11-16 13:21:34 GMT 41.973743 -87.895592 0 208 9
2019-11-16 13:21:28 GMT 41.973907 -87.895477 0 202 8
2019-11-16 13:21:17 GMT 41.974277 -87.895302 0 191 8
We lost coverage of the aircraft here for a total of 18 minutes
2019-11-16 13:03:31 GMT 41.976570 -87.900017 0 320 0
2019-11-16 13:03:22 GMT 41.976620 -87.900063 0 323 0
2019-11-16 13:03:11 GMT 41.976620 -87.900063 0 323 0
2019-11-16 13:02:51 GMT 41.976631 -87.900063 0 323 0
2019-11-16 13:02:31 GMT 41.976643 -87.900063 0 323 0
2019-11-16 13:02:20 GMT 41.976631 -87.900063 0 323 0
2019-11-16 13:01:55 GMT 41.976631 -87.900063 0 323 0
2019-11-16 13:01:41 GMT 41.976631 -87.900063 0 323 0
2019-11-16 13:01:16 GMT 41.976631 -87.900063 0 323 0
2019-11-16 13:01:07 GMT 41.976643 -87.900063 0 323 0
2019-11-16 13:00:57 GMT 41.976654 -87.900047 0 323 0
2019-11-16 13:00:39 GMT 41.976479 -87.900124 0 323 0
2019-11-16 13:00:35 GMT 41.976608 -87.900063 0 323 0
2019-11-16 12:58:30 GMT 41.976620 -87.900063 0 323 0
2019-11-16 12:58:09 GMT 41.976620 -87.900063 0 323 0
2019-11-16 12:57:49 GMT 41.976620 -87.900063 0 323 0
2019-11-16 12:57:40 GMT 41.976620 -87.900063 0 323 0
2019-11-16 12:57:19 GMT 41.976620 -87.900063 0 323 0
2019-11-16 12:57:10 GMT 41.976608 -87.900063 0 323 0
2019-11-16 12:56:59 GMT 41.976620 -87.900078 0 323 0
2019-11-16 12:56:54 GMT 41.976620 -87.900063 0 323 0
2019-11-16 12:56:44 GMT 41.976620 -87.900063 0 323 0
2019-11-16 12:56:34 GMT 41.976608 -87.900063 0 323 0
2019-11-16 12:56:08 GMT 41.976620 -87.900063 0 323 0
2019-11-16 12:55:53 GMT 41.976631 -87.900063 0 323 0
2019-11-16 12:55:11 GMT 41.976620 -87.900063 0 323 0
2019-11-16 12:54:58 GMT 41.976620 -87.900063 0 323 0
2019-11-16 12:54:52 GMT 41.976631 -87.900063 0 323 0
2019-11-16 12:54:41 GMT 41.976620 -87.900063 0 323 0
2019-11-16 12:54:31 GMT 41.976631 -87.900063 0 323 0
2019-11-16 12:54:21 GMT 41.976303 -87.900063 0 323 0
2019-11-16 12:54:09 GMT 41.976631 -87.900063 0 323 0
2019-11-16 12:53:09 GMT 41.976631 -87.900063 0 323 0
2019-11-16 12:52:50 GMT 41.976326 -87.900063 0 323 0
2019-11-16 12:52:33 GMT 41.976631 -87.900063 0 323 0
2019-11-16 12:51:54 GMT 41.976620 -87.900063 0 323 0
2019-11-16 12:51:44 GMT 41.976631 -87.900063 0 323 0
2019-11-16 12:51:33 GMT 41.976131 -87.900063 0 323 0
2019-11-16 12:51:17 GMT 41.976631 -87.900063 0 323 0
2019-11-16 12:51:12 GMT 41.976082 -87.900078 0 323 0
2019-11-16 12:50:50 GMT 41.976631 -87.900063 0 323 0
2019-11-16 12:50:30 GMT 41.976643 -87.900078 0 323 0
2019-11-16 12:50:22 GMT 41.976212 -87.900078 0 323 0
2019-11-16 12:49:59 GMT 41.976643 -87.900078 0 323 0
2019-11-16 12:49:49 GMT 41.976631 -87.900063 0 323 0
2019-11-16 12:49:40 GMT 41.976631 -87.900063 0 323 0
2019-11-16 12:49:26 GMT 41.976322 -87.900085 0 323 0
2019-11-16 12:49:15 GMT 41.976387 -87.900078 0 323 0
2019-11-16 12:49:09 GMT 41.976631 -87.900063 0 323 0
2019-11-16 12:48:56 GMT 41.976631 -87.900078 0 323 0
2019-11-16 12:48:47 GMT 41.976631 -87.900063 0 323 0
2019-11-16 12:48:26 GMT 41.976608 -87.900063 0 323 0
2019-11-16 12:48:16 GMT 41.976631 -87.900063 0 323 0
2019-11-16 12:47:53 GMT 41.976643 -87.900063 0 323 0
2019-11-16 12:47:15 GMT 41.976620 -87.900063 0 323 0
2019-11-16 12:47:12 GMT 41.976631 -87.900063 0 323 0
2019-11-16 12:47:03 GMT 41.976620 -87.900063 0 323 0
2019-11-16 12:46:52 GMT 41.976631 -87.900063 0 323 0
2019-11-16 12:46:31 GMT 41.976620 -87.900063 0 323 0
2019-11-16 12:46:22 GMT 41.976608 -87.900063 0 323 0
2019-11-16 12:46:09 GMT 41.976643 -87.900063 0 323 0
2019-11-16 12:45:59 GMT 41.976620 -87.900063 0 323 0
2019-11-16 12:45:50 GMT 41.976116 -87.900078 0 323 0
2019-11-16 12:45:38 GMT 41.976620 -87.900063 0 323 0
2019-11-16 12:45:29 GMT 41.976620 -87.900063 0 323 0
2019-11-16 12:45:16 GMT 41.976654 -87.900063 0 323 0
2019-11-16 12:45:07 GMT 41.976700 -87.900063 0 323 0
2019-11-16 12:44:01 GMT 41.976631 -87.900063 0 323 0
2019-11-16 12:43:40 GMT 41.976643 -87.900063 0 323 0
2019-11-16 12:43:24 GMT 41.976643 -87.900063 0 323 0
2019-11-16 12:43:13 GMT 41.976643 -87.900063 0 323 0
2019-11-16 12:43:01 GMT 41.976711 -87.900047 0 323 0
2019-11-16 12:42:52 GMT 41.976723 -87.900047 0 323 0
2019-11-16 12:41:39 GMT 41.976620 -87.900063 0 323 0
2019-11-16 12:41:29 GMT 41.976757 -87.900047 0 323 0
2019-11-16 12:41:18 GMT 41.976620 -87.900063 0 323 0
2019-11-16 12:41:09 GMT 41.976734 -87.900047 0 323 0
2019-11-16 12:40:56 GMT 41.976734 -87.900047 0 323 0
2019-11-16 12:40:05 GMT 41.976620 -87.900063 0 323 0

Making use of Plane Finder data

You are free to use the raw flight data, aircraft information and images provided in this report for your own purposes provided the data is correctly attributed to Plane Finder. We ask that you please credit Plane Finder and link to planefinder.net in close proximity to the content.

Optionally one of the following logos (no smaller then 150x24px) can be used and must link to planefinder.net

Embedding the Plane Finder map

You are welcome to embed the Plane Finder playback map on your website to offer visitors a more interactive experience. We suggest using the following HTML code:

<iframe src="//planefinder.net/data/report/AA2244-N817NN-7700-squawk-2019-11-16/map" width="800" height="600" seamless="seamless"></iframe>

Where our data comes from

Plane Finder has a global network of data feeds and antenna radars that receive data broadcast directly from aircraft. The primary technologies used are ADS-B and MLAT. We also show feeds from the FAA and a FLARM glider feed.

Click here to find out more about the Plane Finder network.

How we collect our data